createdAt,value
2022-10-05T00:00:15.155Z,100485.31
2022-10-05T00:02:43.191Z,100484.50
2022-10-05T00:05:32.036Z,100476.09
2022-10-05T00:08:14.438Z,100479.19
2022-10-05T00:10:42.518Z,100467.94
2022-10-05T00:13:15.523Z,100475.66
2022-10-05T00:15:43.953Z,100479.72
2022-10-05T00:18:14.997Z,100477.56
2022-10-05T00:20:43.572Z,100483.47
2022-10-05T00:23:23.292Z,100473.25
2022-10-05T00:25:51.507Z,100466.78
2022-10-05T00:28:33.784Z,100469.75
2022-10-05T00:31:01.861Z,100475.09
2022-10-05T00:33:29.474Z,100467.06
2022-10-05T00:35:57.907Z,100466.47
2022-10-05T00:38:28.411Z,100465.97
2022-10-05T00:41:11.574Z,100463.56
2022-10-05T00:43:48.676Z,100464.91
2022-10-05T00:46:35.343Z,100463.31
2022-10-05T00:49:18.500Z,100467.78
2022-10-05T00:51:54.215Z,100476.59
2022-10-05T00:54:40.265Z,100482.50
2022-10-05T00:57:56.542Z,100474.19
2022-10-05T01:00:26.426Z,100464.00
2022-10-05T01:03:19.432Z,100465.59
2022-10-05T01:06:05.550Z,100465.84
2022-10-05T01:08:48.437Z,100471.84
2022-10-05T01:11:26.748Z,100457.19
2022-10-05T01:14:10.470Z,100464.78
2022-10-05T01:17:01.875Z,100458.25
2022-10-05T01:19:58.030Z,100452.91
2022-10-05T01:22:47.724Z,100463.28
2022-10-05T01:25:36.832Z,100472.25
2022-10-05T01:28:29.290Z,100474.72
2022-10-05T01:31:35.379Z,100479.56
2022-10-05T01:34:21.239Z,100475.94
2022-10-05T01:36:54.665Z,100482.28
2022-10-05T01:39:35.560Z,100483.31
2022-10-05T01:42:20.302Z,100482.28
2022-10-05T01:45:03.512Z,100493.53
2022-10-05T01:47:43.987Z,100498.09
2022-10-05T01:50:21.024Z,100487.28
2022-10-05T01:53:05.804Z,100499.16
2022-10-05T01:55:53.008Z,100493.81
2022-10-05T01:58:34.199Z,100491.56
2022-10-05T02:01:05.016Z,100497.81
2022-10-05T02:03:39.636Z,100507.59
2022-10-05T02:06:25.547Z,100505.69
2022-10-05T02:09:16.386Z,100519.66
2022-10-05T02:11:48.259Z,100521.97
2022-10-05T02:14:23.154Z,100520.09
2022-10-05T02:16:53.671Z,100525.00
2022-10-05T02:19:23.841Z,100523.94
2022-10-05T02:21:55.743Z,100527.25
2022-10-05T02:24:29.242Z,100523.31
2022-10-05T02:26:58.755Z,100513.59
2022-10-05T02:29:30.500Z,100520.84
2022-10-05T02:32:08.400Z,100515.16
2022-10-05T02:34:39.139Z,100515.75
2022-10-05T02:37:16.875Z,100515.19
2022-10-05T02:39:54.605Z,100512.63
2022-10-05T02:42:30.541Z,100512.63
2022-10-05T02:45:28.072Z,100518.91
2022-10-05T02:48:05.362Z,100518.13
2022-10-05T02:50:53.791Z,100513.97
2022-10-05T02:53:31.403Z,100520.56
2022-10-05T02:56:23.984Z,100520.03
2022-10-05T02:59:08.025Z,100520.00
2022-10-05T03:01:57.880Z,100539.66
2022-10-05T03:04:38.836Z,100530.38
2022-10-05T03:07:14.800Z,100535.37
2022-10-05T03:09:58.880Z,100530.38
2022-10-05T03:12:49.782Z,100536.94
2022-10-05T03:15:36.000Z,100537.12
2022-10-05T03:18:30.868Z,100533.91
2022-10-05T03:21:26.699Z,100530.94
2022-10-05T03:24:07.096Z,100530.25
2022-10-05T03:27:00.891Z,100529.88
2022-10-05T03:29:40.768Z,100520.56
2022-10-05T03:32:14.851Z,100526.97
2022-10-05T03:34:46.493Z,100519.16
2022-10-05T03:37:51.667Z,100500.75
2022-10-05T03:40:31.330Z,100514.53
2022-10-05T03:43:16.595Z,100517.41
2022-10-05T03:45:58.503Z,100515.59
2022-10-05T03:48:36.472Z,100519.00
2022-10-05T03:51:07.404Z,100524.59
2022-10-05T03:53:38.026Z,100523.12
2022-10-05T03:56:15.032Z,100529.81
2022-10-05T03:58:52.818Z,100533.09
2022-10-05T04:01:25.511Z,100544.22
2022-10-05T04:03:58.229Z,100538.00
2022-10-05T04:06:31.754Z,100533.97
2022-10-05T04:09:11.420Z,100539.69
2022-10-05T04:11:47.257Z,100543.16
2022-10-05T04:14:19.976Z,100539.22
2022-10-05T04:16:51.748Z,100542.22
2022-10-05T04:19:34.627Z,100538.78
2022-10-05T04:22:14.393Z,100536.63
2022-10-05T04:25:17.902Z,100526.97
2022-10-05T04:27:58.344Z,100536.53
2022-10-05T04:30:26.376Z,100541.81
2022-10-05T04:32:56.734Z,100539.94
2022-10-05T04:35:30.693Z,100537.09
2022-10-05T04:38:27.056Z,100549.69
2022-10-05T04:41:01.030Z,100548.94
2022-10-05T04:44:07.760Z,100546.22
2022-10-05T04:47:10.265Z,100538.75
2022-10-05T04:49:55.531Z,100542.94
2022-10-05T04:52:36.286Z,100548.28
2022-10-05T04:55:22.072Z,100549.09
2022-10-05T04:58:11.068Z,100544.91
2022-10-05T05:01:42.152Z,100538.56
2022-10-05T05:04:51.456Z,100543.25
2022-10-05T05:07:32.259Z,100538.94
2022-10-05T05:10:41.073Z,100545.06
2022-10-05T05:13:30.850Z,100544.09
2022-10-05T05:16:06.674Z,100536.38
2022-10-05T05:18:53.105Z,100533.41
2022-10-05T05:21:48.512Z,100537.44
2022-10-05T05:24:23.167Z,100537.81
2022-10-05T05:27:02.998Z,100539.78
2022-10-05T05:30:13.990Z,100547.50
2022-10-05T05:32:41.652Z,100542.88
2022-10-05T05:35:28.977Z,100540.97
2022-10-05T05:38:05.655Z,100545.72
2022-10-05T05:40:38.637Z,100550.88
2022-10-05T05:43:27.207Z,100543.91
2022-10-05T05:45:59.748Z,100556.88
2022-10-05T05:48:47.840Z,100564.19
2022-10-05T05:51:21.053Z,100553.81
2022-10-05T05:54:12.218Z,100562.91
2022-10-05T05:56:44.257Z,100570.25
2022-10-05T05:59:26.531Z,100565.53
2022-10-05T06:02:00.327Z,100573.91
2022-10-05T06:04:33.061Z,100571.81
2022-10-05T06:07:02.213Z,100580.50
2022-10-05T06:09:44.546Z,100587.28
2022-10-05T06:12:16.745Z,100604.22
2022-10-05T06:15:10.592Z,100601.06
2022-10-05T06:17:43.316Z,100610.75
2022-10-05T06:20:24.159Z,100616.72
2022-10-05T06:22:52.575Z,100621.53
2022-10-05T06:25:25.107Z,100624.81
2022-10-05T06:28:08.511Z,100630.75
2022-10-05T06:31:02.650Z,100632.59
2022-10-05T06:33:36.200Z,100636.94
2022-10-05T06:36:04.174Z,100642.84
2022-10-05T06:38:46.841Z,100657.09
2022-10-05T06:41:35.684Z,100657.13
2022-10-05T06:44:35.540Z,100663.56
2022-10-05T06:47:25.218Z,100656.03
2022-10-05T06:50:06.871Z,100651.75
2022-10-05T06:52:41.595Z,100649.84
2022-10-05T06:55:42.798Z,100644.72
2022-10-05T06:58:32.840Z,100651.41
2022-10-05T07:01:10.635Z,100653.28
2022-10-05T07:04:09.958Z,100658.00
2022-10-05T07:06:40.996Z,100672.72
2022-10-05T07:09:11.854Z,100678.72
2022-10-05T07:11:54.343Z,100687.31
2022-10-05T07:14:48.773Z,100685.97
2022-10-05T07:17:25.568Z,100688.94
2022-10-05T07:19:59.741Z,100707.19
2022-10-05T07:22:51.490Z,100707.87
2022-10-05T07:25:23.158Z,100710.06
2022-10-05T07:28:00.306Z,100703.38
2022-10-05T07:30:29.363Z,100696.44
2022-10-05T07:33:01.914Z,100693.19
2022-10-05T07:35:38.832Z,100689.38
2022-10-05T07:38:23.505Z,100704.66
2022-10-05T07:41:00.402Z,100712.09
2022-10-05T07:44:01.605Z,100707.66
2022-10-05T07:46:51.856Z,100707.91
2022-10-05T07:49:22.768Z,100715.81
2022-10-05T07:51:58.298Z,100708.34
2022-10-05T07:54:40.948Z,100699.81
2022-10-05T07:57:14.979Z,100702.84
2022-10-05T07:59:47.326Z,100705.00
2022-10-05T08:02:35.067Z,100700.59
2022-10-05T08:05:06.599Z,100700.69
2022-10-05T08:07:34.612Z,100702.50
2022-10-05T08:10:24.147Z,100703.31
2022-10-05T08:13:02.011Z,100710.53
2022-10-05T08:15:34.417Z,100703.50
2022-10-05T08:18:13.248Z,100704.06
2022-10-05T08:20:48.537Z,100702.16
2022-10-05T08:23:24.419Z,100692.19
2022-10-05T08:26:11.898Z,100690.66
2022-10-05T08:28:45.521Z,100690.50
2022-10-05T08:31:45.877Z,100696.38
2022-10-05T08:34:18.444Z,100685.38
2022-10-05T08:36:57.090Z,100683.91
2022-10-05T08:39:28.720Z,100685.44
2022-10-05T08:42:20.325Z,100683.16
2022-10-05T08:45:03.304Z,100688.31
2022-10-05T08:48:00.233Z,100692.91
2022-10-05T08:50:58.691Z,100678.75
2022-10-05T08:54:03.937Z,100683.81
2022-10-05T08:56:58.539Z,100688.78
2022-10-05T08:59:56.932Z,100686.47
2022-10-05T09:02:24.862Z,100687.16
2022-10-05T09:05:14.226Z,100689.97
2022-10-05T09:07:54.487Z,100694.63
2022-10-05T09:10:53.894Z,100692.09
2022-10-05T09:13:40.252Z,100699.44
2022-10-05T09:16:07.868Z,100699.19
2022-10-05T09:18:58.331Z,100692.69
2022-10-05T09:21:39.867Z,100700.25
2022-10-05T09:24:07.670Z,100706.34
2022-10-05T09:26:42.543Z,100708.88
2022-10-05T09:29:26.072Z,100709.25
2022-10-05T09:32:31.358Z,100710.78
2022-10-05T09:35:08.535Z,100723.03
2022-10-05T09:37:51.296Z,100712.63
2022-10-05T09:41:07.466Z,100715.75
2022-10-05T09:43:34.881Z,100719.41
2022-10-05T09:46:21.758Z,100708.63
2022-10-05T09:48:53.357Z,100711.03
2022-10-05T09:51:49.593Z,100709.03
2022-10-05T09:54:54.654Z,100709.94
2022-10-05T09:57:49.268Z,100707.22
2022-10-05T10:01:09.046Z,100713.41
2022-10-05T10:04:16.378Z,100709.44
2022-10-05T10:07:02.450Z,100710.88
2022-10-05T10:09:55.042Z,100712.34
2022-10-05T10:12:47.201Z,100699.50
2022-10-05T10:15:45.354Z,100703.12
2022-10-05T10:18:18.916Z,100705.09
2022-10-05T10:21:25.451Z,100711.81
2022-10-05T10:23:58.796Z,100703.44
2022-10-05T10:26:46.400Z,100702.31
2022-10-05T10:29:35.919Z,100704.47
2022-10-05T10:32:30.547Z,100705.69
2022-10-05T10:35:21.883Z,100714.38
2022-10-05T10:38:16.675Z,100711.31
2022-10-05T10:41:08.875Z,100710.19
2022-10-05T10:44:02.857Z,100711.97
2022-10-05T10:46:51.513Z,100703.81
2022-10-05T10:49:45.229Z,100700.44
2022-10-05T10:52:34.854Z,100702.06
2022-10-05T10:55:39.665Z,100694.06
2022-10-05T10:58:32.005Z,100694.75
2022-10-05T11:01:33.580Z,100702.22
2022-10-05T11:04:19.977Z,100714.34
2022-10-05T11:07:05.973Z,100713.06
2022-10-05T11:09:57.816Z,100711.91
2022-10-05T11:12:46.838Z,100697.00
2022-10-05T11:15:26.536Z,100699.00
2022-10-05T11:18:10.045Z,100693.09
2022-10-05T11:21:11.588Z,100693.59
2022-10-05T11:23:57.711Z,100688.94
2022-10-05T11:26:59.278Z,100673.91
2022-10-05T11:30:04.795Z,100680.78
2022-10-05T11:33:02.942Z,100679.66
2022-10-05T11:35:39.237Z,100679.34
2022-10-05T11:38:19.716Z,100670.34
2022-10-05T11:41:06.270Z,100669.66
2022-10-05T11:44:09.340Z,100667.34
2022-10-05T11:46:58.558Z,100670.03
2022-10-05T11:49:41.271Z,100666.22
2022-10-05T11:52:14.187Z,100675.16
2022-10-05T11:55:10.908Z,100665.22
2022-10-05T11:57:58.674Z,100665.06
2022-10-05T12:00:40.403Z,100671.31
2022-10-05T12:03:16.020Z,100658.03
2022-10-05T12:06:25.837Z,100663.31
2022-10-05T12:09:04.925Z,100659.62
2022-10-05T12:11:58.131Z,100657.47
2022-10-05T12:14:34.708Z,100652.19
2022-10-05T12:17:17.449Z,100650.28
2022-10-05T12:19:51.847Z,100643.81
2022-10-05T12:22:42.932Z,100635.22
2022-10-05T12:25:17.762Z,100634.66
2022-10-05T12:27:46.875Z,100635.97
2022-10-05T12:30:35.648Z,100637.53
2022-10-05T12:33:16.518Z,100634.03
2022-10-05T12:35:54.432Z,100626.50
2022-10-05T12:38:41.957Z,100631.44
2022-10-05T12:41:30.391Z,100634.84
2022-10-05T12:44:18.501Z,100623.63
2022-10-05T12:47:16.886Z,100617.38
2022-10-05T12:50:00.525Z,100612.59
2022-10-05T12:52:37.105Z,100621.94
2022-10-05T12:55:14.008Z,100622.69
2022-10-05T12:58:06.742Z,100621.88
2022-10-05T13:00:39.619Z,100615.97
2022-10-05T13:03:32.602Z,100608.44
2022-10-05T13:06:17.777Z,100606.25
2022-10-05T13:08:53.610Z,100608.47
2022-10-05T13:11:33.485Z,100608.03
2022-10-05T13:14:29.537Z,100602.69
2022-10-05T13:17:07.391Z,100602.66
2022-10-05T13:19:46.140Z,100606.34
2022-10-05T13:22:16.776Z,100602.41
2022-10-05T13:25:15.432Z,100603.19
2022-10-05T13:28:01.448Z,100600.63
2022-10-05T13:30:29.687Z,100598.50
2022-10-05T13:32:57.840Z,100603.72
2022-10-05T13:35:51.719Z,100607.03
2022-10-05T13:38:41.844Z,100603.72
2022-10-05T13:41:21.610Z,100593.53
2022-10-05T13:44:01.570Z,100596.56
2022-10-05T13:46:47.258Z,100602.78
2022-10-05T13:49:25.404Z,100595.50
2022-10-05T13:52:08.157Z,100594.22
2022-10-05T13:54:41.979Z,100593.84
2022-10-05T13:57:18.727Z,100585.69
2022-10-05T13:59:57.548Z,100590.66
2022-10-05T14:02:37.703Z,100584.75
2022-10-05T14:05:17.657Z,100586.69
2022-10-05T14:07:56.947Z,100591.53
2022-10-05T14:10:36.833Z,100586.81
2022-10-05T14:13:25.073Z,100588.31
2022-10-05T14:16:01.976Z,100598.03
2022-10-05T14:18:29.904Z,100596.50
2022-10-05T14:21:14.368Z,100596.34
2022-10-05T14:23:42.124Z,100589.13
2022-10-05T14:26:19.296Z,100595.06
2022-10-05T14:29:14.977Z,100596.53
2022-10-05T14:31:49.860Z,100595.72
2022-10-05T14:34:38.279Z,100598.12
2022-10-05T14:37:23.372Z,100596.28
2022-10-05T14:39:52.930Z,100596.34
2022-10-05T14:42:27.532Z,100598.06
2022-10-05T14:45:22.546Z,100595.50
2022-10-05T14:48:03.790Z,100591.66
2022-10-05T14:50:31.621Z,100593.56
2022-10-05T14:53:15.077Z,100601.84
2022-10-05T14:56:04.100Z,100598.38
2022-10-05T14:58:47.961Z,100592.56
2022-10-05T15:01:35.755Z,100603.44
2022-10-05T15:04:37.729Z,100605.66
2022-10-05T15:07:20.271Z,100600.34
2022-10-05T15:10:00.941Z,100588.09
2022-10-05T15:12:31.728Z,100586.44
2022-10-05T15:15:17.019Z,100582.44
2022-10-05T15:17:50.396Z,100578.94
2022-10-05T15:20:37.740Z,100570.06
2022-10-05T15:23:14.219Z,100568.16
2022-10-05T15:25:54.102Z,100569.03
2022-10-05T15:28:42.574Z,100564.31
2022-10-05T15:31:46.143Z,100571.66
2022-10-05T15:34:39.126Z,100571.06
2022-10-05T15:37:13.358Z,100572.31
2022-10-05T15:39:49.286Z,100576.22
2022-10-05T15:42:20.250Z,100580.53
2022-10-05T15:44:47.833Z,100587.47
2022-10-05T15:47:43.868Z,100580.59
2022-10-05T15:50:27.538Z,100578.53
2022-10-05T15:53:07.998Z,100571.41
2022-10-05T15:55:56.459Z,100559.44
2022-10-05T15:58:24.503Z,100558.34
2022-10-05T16:01:04.356Z,100563.91
2022-10-05T16:03:49.113Z,100560.25
2022-10-05T16:06:40.816Z,100558.00
2022-10-05T16:09:12.845Z,100570.28
2022-10-05T16:11:46.507Z,100574.75
2022-10-05T16:14:45.596Z,100563.91
2022-10-05T16:17:21.436Z,100573.25
2022-10-05T16:20:22.943Z,100571.09
2022-10-05T16:23:09.130Z,100569.13
2022-10-05T16:25:55.348Z,100571.59
2022-10-05T16:28:48.035Z,100573.06
2022-10-05T16:31:29.260Z,100572.81
2022-10-05T16:34:25.008Z,100578.03
2022-10-05T16:37:36.103Z,100574.94
2022-10-05T16:40:32.953Z,100571.94
2022-10-05T16:43:21.022Z,100571.84
2022-10-05T16:46:15.185Z,100581.88
2022-10-05T16:49:01.831Z,100585.97
2022-10-05T16:51:46.705Z,100585.34
2022-10-05T16:54:26.894Z,100589.47
2022-10-05T16:57:00.477Z,100587.16
2022-10-05T16:59:46.616Z,100584.16
2022-10-05T17:02:37.546Z,100595.47
2022-10-05T17:05:27.956Z,100602.06
2022-10-05T17:08:14.692Z,100599.25
2022-10-05T17:10:50.671Z,100599.25
2022-10-05T17:13:36.721Z,100604.47
2022-10-05T17:16:13.719Z,100604.25
2022-10-05T17:18:59.092Z,100608.19
2022-10-05T17:21:59.845Z,100605.69
2022-10-05T17:24:36.662Z,100612.16
2022-10-05T17:27:13.283Z,100614.06
2022-10-05T17:29:48.084Z,100612.38
2022-10-05T17:32:16.483Z,100599.78
2022-10-05T17:34:59.299Z,100611.59
2022-10-05T17:37:27.214Z,100612.69
2022-10-05T17:39:57.225Z,100607.66
2022-10-05T17:42:33.926Z,100609.34
2022-10-05T17:45:10.603Z,100612.09
2022-10-05T17:48:35.391Z,100610.13
2022-10-05T17:51:15.195Z,100613.34
2022-10-05T17:53:42.847Z,100620.41
2022-10-05T17:56:11.157Z,100619.38
2022-10-05T17:58:44.887Z,100619.53
2022-10-05T18:01:17.879Z,100620.19
2022-10-05T18:03:49.046Z,100622.31
2022-10-05T18:06:25.509Z,100619.03
2022-10-05T18:09:15.833Z,100617.81
2022-10-05T18:11:45.141Z,100620.09
2022-10-05T18:14:20.127Z,100619.50
2022-10-05T18:17:10.597Z,100612.78
2022-10-05T18:19:40.202Z,100608.94
2022-10-05T18:22:13.948Z,100614.53
2022-10-05T18:24:47.585Z,100622.66
2022-10-05T18:27:30.485Z,100613.31
2022-10-05T18:30:02.026Z,100616.94
2022-10-05T18:32:50.414Z,100621.81
2022-10-05T18:35:23.631Z,100608.62
2022-10-05T18:38:29.921Z,100618.12
2022-10-05T18:41:05.390Z,100607.22
2022-10-05T18:43:56.922Z,100609.87
2022-10-05T18:46:38.063Z,100613.75
2022-10-05T18:49:23.035Z,100610.37
2022-10-05T18:52:13.144Z,100617.25
2022-10-05T18:55:15.181Z,100612.06
2022-10-05T18:58:01.432Z,100610.25
2022-10-05T19:00:46.194Z,100608.84
2022-10-05T19:03:16.779Z,100609.06
2022-10-05T19:06:09.569Z,100609.94
2022-10-05T19:08:52.538Z,100605.34
2022-10-05T19:11:53.793Z,100610.56
2022-10-05T19:14:24.609Z,100613.06
2022-10-05T19:17:03.131Z,100609.50
2022-10-05T19:19:53.130Z,100614.47
2022-10-05T19:22:31.935Z,100617.72
2022-10-05T19:25:18.017Z,100611.31
2022-10-05T19:27:51.845Z,100609.94
2022-10-05T19:30:24.097Z,100619.66
2022-10-05T19:33:45.315Z,100627.41
2022-10-05T19:36:45.235Z,100630.09
2022-10-05T19:39:31.958Z,100627.50
2022-10-05T19:42:14.827Z,100625.03
2022-10-05T19:45:36.611Z,100630.91
2022-10-05T19:48:41.368Z,100630.19
2022-10-05T19:51:26.289Z,100634.41
2022-10-05T19:53:54.238Z,100637.25
2022-10-05T19:56:24.731Z,100636.66
2022-10-05T19:58:53.588Z,100640.34
2022-10-05T20:01:24.461Z,100639.56
2022-10-05T20:03:53.393Z,100645.78
2022-10-05T20:06:21.349Z,100635.59
2022-10-05T20:08:51.443Z,100640.34
2022-10-05T20:11:24.128Z,100641.25
2022-10-05T20:13:54.320Z,100643.84
2022-10-05T20:16:25.071Z,100646.94
2022-10-05T20:18:52.913Z,100651.56
2022-10-05T20:21:51.922Z,100644.91
2022-10-05T20:24:23.419Z,100644.41
2022-10-05T20:26:50.833Z,100643.06
2022-10-05T20:29:18.535Z,100633.84
2022-10-05T20:31:46.573Z,100641.38
2022-10-05T20:34:14.173Z,100647.72
2022-10-05T20:36:41.752Z,100642.41
2022-10-05T20:39:09.608Z,100647.56
2022-10-05T20:41:37.195Z,100658.91
2022-10-05T20:44:04.737Z,100656.53
2022-10-05T20:46:32.642Z,100655.25
2022-10-05T20:49:00.456Z,100652.00
2022-10-05T20:51:28.504Z,100655.16
2022-10-05T20:53:56.529Z,100656.28
2022-10-05T20:56:24.612Z,100660.13
2022-10-05T20:58:52.452Z,100660.66
2022-10-05T21:01:20.759Z,100660.13
2022-10-05T21:03:49.379Z,100665.22
2022-10-05T21:06:17.578Z,100656.34
2022-10-05T21:08:45.708Z,100657.47
2022-10-05T21:11:14.115Z,100656.38
2022-10-05T21:13:41.721Z,100661.78
2022-10-05T21:16:09.662Z,100659.84
2022-10-05T21:18:37.410Z,100656.19
2022-10-05T21:21:05.123Z,100652.59
2022-10-05T21:23:33.209Z,100648.81
2022-10-05T21:26:01.681Z,100651.47
2022-10-05T21:28:29.805Z,100650.16
2022-10-05T21:30:57.979Z,100647.13
2022-10-05T21:33:26.187Z,100652.00
2022-10-05T21:35:54.191Z,100653.13
2022-10-05T21:38:22.135Z,100652.03
2022-10-05T21:40:49.833Z,100649.91
2022-10-05T21:43:17.808Z,100650.16
2022-10-05T21:45:46.904Z,100645.81
2022-10-05T21:48:15.547Z,100650.44
2022-10-05T21:50:43.314Z,100644.78
2022-10-05T21:53:13.376Z,100652.84
2022-10-05T21:55:43.066Z,100648.34
2022-10-05T21:58:12.376Z,100643.44
2022-10-05T22:00:40.048Z,100639.75
2022-10-05T22:03:07.970Z,100639.78
2022-10-05T22:05:35.898Z,100638.97
2022-10-05T22:08:04.610Z,100639.00
2022-10-05T22:10:33.537Z,100643.84
2022-10-05T22:13:02.394Z,100644.66
2022-10-05T22:15:30.526Z,100641.72
2022-10-05T22:17:59.276Z,100641.19
2022-10-05T22:20:27.331Z,100636.63
2022-10-05T22:22:54.867Z,100629.69
2022-10-05T22:25:22.930Z,100629.38
2022-10-05T22:27:50.851Z,100630.75
2022-10-05T22:30:19.991Z,100629.63
2022-10-05T22:32:47.952Z,100621.88
2022-10-05T22:35:15.709Z,100619.94
2022-10-05T22:37:43.435Z,100623.13
2022-10-05T22:40:12.417Z,100624.78
2022-10-05T22:42:40.829Z,100627.22
2022-10-05T22:45:08.766Z,100622.03
2022-10-05T22:47:36.801Z,100624.91
2022-10-05T22:50:04.797Z,100620.69
2022-10-05T22:52:32.475Z,100618.25
2022-10-05T22:58:43.074Z,100620.34
2022-10-05T23:01:16.507Z,100620.91
2022-10-05T23:03:44.445Z,100617.13
2022-10-05T23:06:15.788Z,100614.19
2022-10-05T23:08:43.800Z,100617.41
2022-10-05T23:11:13.846Z,100610.13
2022-10-05T23:13:42.116Z,100604.50
2022-10-05T23:16:12.377Z,100605.59
2022-10-05T23:18:40.579Z,100603.19
2022-10-05T23:21:09.655Z,100608.84
2022-10-05T23:23:38.708Z,100607.75
2022-10-05T23:26:08.151Z,100606.31
2022-10-05T23:28:36.511Z,100602.63
2022-10-05T23:31:06.532Z,100604.44
2022-10-05T23:33:35.044Z,100601.25
2022-10-05T23:36:27.142Z,100607.47
2022-10-05T23:38:54.879Z,100603.66
2022-10-05T23:41:22.792Z,100601.31
2022-10-05T23:43:50.431Z,100606.75
2022-10-05T23:46:18.292Z,100602.72
2022-10-05T23:48:46.287Z,100598.41
2022-10-05T23:51:14.255Z,100589.78
2022-10-05T23:53:41.868Z,100596.78
2022-10-05T23:56:09.852Z,100593.50
2022-10-05T23:58:37.561Z,100596.50
